Portada
METAR-TAF:

METAR-TAF

Aeroports :

Albany, Geòrgia, Estats Units d'Amèrica

latitud: 31-32-08N, longitud: 084-11-40W, altitud: 60 m

Observació

L'informe es va fer fa 53 minuts, a les 07:53 UTC
Vent calma
Temperatura 23°C
Humitat 78%
Pressió 1019 hPa
Visibilitat: 16.1 km
Cel clar

METAR: KABY 220753Z AUTO 00000KT 10SM CLR 23/19 A3008 RMK AO2 SLP183 T02280189

Hora: 04:46 (08:46 UTC)

Pronòstic

L'informe es va fer fa 3 hores i 7 minuts, a les 05:39 UTC
Pronòstic vàlid del 22 a les 06 UTC al 23 a les 06 UTC
Vent kt del Nord
Visibilitat: 10 km
Cel clar
A partir de les 22 a les 1500 UTC
Vent 5 kt del Nord/Nord-Est
Visibilitat: 10 km
Núvols disperses a una alçada de 5000 ft
xàfecs en les proximitats,

TAF: KABY 220539Z 2206/2306 00000KT P6SM SKC FM221500 02005KT P6SM VCSH SCT050

Observacions i pronòstics meteorològics de més de 4000 aeroports (METAR i TAF).

Les estacions disponibles són els punts grocs i vermells al mapa.

Posi el ratolí al punt desitjat per veure el nom de l'estació.

Feu clic per veure les observacions i els pronòstics meteorològics.

Per canviar el mapa: feu clic els botons verds amb una creu de color negre per apropar; al botó verd amb un guió per allunyar la imatge; o en les fletxes verdes per a mapes adjacents.


METAR-TAF: